sensor_id;sensor_type;location;lat;lon;timestamp;pressure;altitude;pressure_sealevel;temperature
49557;BMP280;35462;45.048;7.666;2023-10-19T00:10:59;98278.66;;;16.18
49557;BMP280;35462;45.048;7.666;2023-10-19T00:26:24;98267.97;;;16.18
49557;BMP280;35462;45.048;7.666;2023-10-19T00:41:53;98269.66;;;16.06
49557;BMP280;35462;45.048;7.666;2023-10-19T00:57:19;98272.91;;;16.10
49557;BMP280;35462;45.048;7.666;2023-10-19T01:12:54;98247.66;;;16.11
49557;BMP280;35462;45.048;7.666;2023-10-19T01:28:13;98220.69;;;16.09
49557;BMP280;35462;45.048;7.666;2023-10-19T01:43:35;98201.44;;;16.06
49557;BMP280;35462;45.048;7.666;2023-10-19T01:58:59;98172.47;;;16.04
49557;BMP280;35462;45.048;7.666;2023-10-19T02:14:19;98147.59;;;15.98
49557;BMP280;35462;45.048;7.666;2023-10-19T02:29:38;98149.22;;;15.96
49557;BMP280;35462;45.048;7.666;2023-10-19T02:44:58;98124.91;;;15.94
49557;BMP280;35462;45.048;7.666;2023-10-19T03:00:18;98100.00;;;15.88
49557;BMP280;35462;45.048;7.666;2023-10-19T03:15:39;98078.97;;;15.81
49557;BMP280;35462;45.048;7.666;2023-10-19T03:31:02;98051.75;;;15.68
49557;BMP280;35462;45.048;7.666;2023-10-19T03:46:23;98057.78;;;15.77
49557;BMP280;35462;45.048;7.666;2023-10-19T04:01:50;98018.53;;;15.69
49557;BMP280;35462;45.048;7.666;2023-10-19T04:17:09;98022.72;;;15.61
49557;BMP280;35462;45.048;7.666;2023-10-19T04:32:31;97987.03;;;15.58
49557;BMP280;35462;45.048;7.666;2023-10-19T04:47:51;97952.47;;;15.55
49557;BMP280;35462;45.048;7.666;2023-10-19T05:03:14;97936.91;;;15.53
49557;BMP280;35462;45.048;7.666;2023-10-19T05:18:37;97928.81;;;15.48
49557;BMP280;35462;45.048;7.666;2023-10-19T05:33:57;97895.88;;;15.51
49557;BMP280;35462;45.048;7.666;2023-10-19T05:49:17;97890.09;;;15.52
49557;BMP280;35462;45.048;7.666;2023-10-19T06:04:36;97911.91;;;15.51
49557;BMP280;35462;45.048;7.666;2023-10-19T06:19:56;97911.78;;;15.45
49557;BMP280;35462;45.048;7.666;2023-10-19T06:35:18;97920.50;;;15.46
49557;BMP280;35462;45.048;7.666;2023-10-19T06:50:38;97914.09;;;15.52
49557;BMP280;35462;45.048;7.666;2023-10-19T07:05:59;97904.44;;;15.55
49557;BMP280;35462;45.048;7.666;2023-10-19T07:21:19;97886.41;;;15.50
49557;BMP280;35462;45.048;7.666;2023-10-19T07:36:39;97904.84;;;15.62
49557;BMP280;35462;45.048;7.666;2023-10-19T07:51:59;97886.50;;;15.79
49557;BMP280;35462;45.048;7.666;2023-10-19T08:07:18;97875.19;;;15.84
49557;BMP280;35462;45.048;7.666;2023-10-19T08:22:38;97848.88;;;16.34
49557;BMP280;35462;45.048;7.666;2023-10-19T08:37:57;97866.47;;;16.41
49557;BMP280;35462;45.048;7.666;2023-10-19T08:53:18;97875.59;;;16.34
49557;BMP280;35462;45.048;7.666;2023-10-19T09:08:40;97843.53;;;16.34
49557;BMP280;35462;45.048;7.666;2023-10-19T09:23:59;97817.75;;;16.31
49557;BMP280;35462;45.048;7.666;2023-10-19T09:39:19;97797.53;;;16.45
49557;BMP280;35462;45.048;7.666;2023-10-19T09:54:57;97793.81;;;16.57
49557;BMP280;35462;45.048;7.666;2023-10-19T10:10:18;97794.44;;;16.66
49557;BMP280;35462;45.048;7.666;2023-10-19T10:25:38;97796.50;;;16.42
49557;BMP280;35462;45.048;7.666;2023-10-19T10:40:57;97747.03;;;17.06
49557;BMP280;35462;45.048;7.666;2023-10-19T10:56:17;97712.41;;;17.43
49557;BMP280;35462;45.048;7.666;2023-10-19T11:11:39;97694.34;;;17.63
49557;BMP280;35462;45.048;7.666;2023-10-19T11:26:58;97722.53;;;17.59
49557;BMP280;35462;45.048;7.666;2023-10-19T11:42:18;97705.59;;;16.96
49557;BMP280;35462;45.048;7.666;2023-10-19T11:57:37;97677.09;;;17.39
49557;BMP280;35462;45.048;7.666;2023-10-19T12:12:57;97650.50;;;17.60
49557;BMP280;35462;45.048;7.666;2023-10-19T12:28:16;97621.91;;;17.47
49557;BMP280;35462;45.048;7.666;2023-10-19T12:43:35;97619.66;;;17.34
49557;BMP280;35462;45.048;7.666;2023-10-19T12:58:55;97599.50;;;17.39
49557;BMP280;35462;45.048;7.666;2023-10-19T13:14:14;97580.78;;;17.13
49557;BMP280;35462;45.048;7.666;2023-10-19T13:29:35;97546.16;;;17.30
49557;BMP280;35462;45.048;7.666;2023-10-19T13:44:58;97531.94;;;17.49
49557;BMP280;35462;45.048;7.666;2023-10-19T14:00:19;97498.66;;;17.19
49557;BMP280;35462;45.048;7.666;2023-10-19T14:15:43;97477.25;;;17.19
49557;BMP280;35462;45.048;7.666;2023-10-19T14:31:02;97484.97;;;16.81
49557;BMP280;35462;45.048;7.666;2023-10-19T14:46:23;97521.47;;;16.59
49557;BMP280;35462;45.048;7.666;2023-10-19T15:01:42;97470.94;;;16.61
49557;BMP280;35462;45.048;7.666;2023-10-19T15:17:02;97474.16;;;16.39
49557;BMP280;35462;45.048;7.666;2023-10-19T15:32:22;97446.94;;;16.66
49557;BMP280;35462;45.048;7.666;2023-10-19T15:47:42;97397.22;;;16.49
49557;BMP280;35462;45.048;7.666;2023-10-19T16:03:01;97454.59;;;16.53
49557;BMP280;35462;45.048;7.666;2023-10-19T16:18:20;97409.31;;;16.39
49557;BMP280;35462;45.048;7.666;2023-10-19T16:33:40;97382.31;;;15.86
49557;BMP280;35462;45.048;7.666;2023-10-19T16:49:02;97390.28;;;15.81
49557;BMP280;35462;45.048;7.666;2023-10-19T17:04:22;97389.19;;;15.93
49557;BMP280;35462;45.048;7.666;2023-10-19T17:19:41;97409.34;;;15.94
49557;BMP280;35462;45.048;7.666;2023-10-19T17:35:01;97402.75;;;15.89
49557;BMP280;35462;45.048;7.666;2023-10-19T17:50:20;97362.72;;;15.89
49557;BMP280;35462;45.048;7.666;2023-10-19T18:05:44;97344.84;;;16.01
49557;BMP280;35462;45.048;7.666;2023-10-19T18:21:12;97347.59;;;16.11
49557;BMP280;35462;45.048;7.666;2023-10-19T18:36:32;97323.50;;;16.01
49557;BMP280;35462;45.048;7.666;2023-10-19T18:51:54;97317.13;;;15.93
49557;BMP280;35462;45.048;7.666;2023-10-19T19:07:14;97307.75;;;15.77
49557;BMP280;35462;45.048;7.666;2023-10-19T19:22:37;97306.53;;;15.78
49557;BMP280;35462;45.048;7.666;2023-10-19T19:37:56;97304.03;;;15.95
49557;BMP280;35462;45.048;7.666;2023-10-19T19:53:16;97280.34;;;16.07
49557;BMP280;35462;45.048;7.666;2023-10-19T20:08:44;97276.47;;;16.08
49557;BMP280;35462;45.048;7.666;2023-10-19T20:24:04;97255.06;;;16.03
49557;BMP280;35462;45.048;7.666;2023-10-19T20:39:25;97255.09;;;16.08
49557;BMP280;35462;45.048;7.666;2023-10-19T20:54:44;97233.28;;;16.10
49557;BMP280;35462;45.048;7.666;2023-10-19T21:10:05;97157.03;;;16.04
49557;BMP280;35462;45.048;7.666;2023-10-19T21:25:25;97179.84;;;15.74
49557;BMP280;35462;45.048;7.666;2023-10-19T21:40:47;97169.88;;;15.69
49557;BMP280;35462;45.048;7.666;2023-10-19T21:56:06;97164.88;;;15.51
49557;BMP280;35462;45.048;7.666;2023-10-19T22:11:26;97129.75;;;15.58
49557;BMP280;35462;45.048;7.666;2023-10-19T22:26:45;97106.34;;;15.73
49557;BMP280;35462;45.048;7.666;2023-10-19T22:42:04;97097.66;;;15.78
49557;BMP280;35462;45.048;7.666;2023-10-19T22:57:24;97100.88;;;15.51
49557;BMP280;35462;45.048;7.666;2023-10-19T23:12:45;97056.75;;;15.24
49557;BMP280;35462;45.048;7.666;2023-10-19T23:28:05;97042.06;;;15.04
49557;BMP280;35462;45.048;7.666;2023-10-19T23:43:26;97045.03;;;15.11
49557;BMP280;35462;45.048;7.666;2023-10-19T23:58:46;97048.59;;;15.33
